Time;durP1;ratioP1;P1;durP2;ratioP2;P2;SDS_P1;SDS_P2;PMS_P1;PMS_P2;Temp;Humidity;BMP_temperature;BMP_pressure;BME280_temperature;BME280_humidity;BME280_pressure;Samples;Min_cycle;Max_cycle;Signal;HPM_P1;HPM_P2
2022/09/01 00:00:02;;;;;;;5.63;4.60;;;15.90;99.90;;;16.74;100.00;98422.00;5085047;28;20472;-82
2022/09/01 00:02:31;;;;;;;8.23;4.33;;;15.80;99.90;;;16.66;100.00;98423.06;5087822;28;20454;-81
2022/09/01 00:05:03;;;;;;;7.27;5.13;;;15.70;99.90;;;16.67;100.00;98424.69;5084488;28;20492;-81
2022/09/01 00:07:35;;;;;;;7.43;4.60;;;15.80;99.90;;;16.60;100.00;98421.31;5083766;28;21004;-81
2022/09/01 00:10:08;;;;;;;6.20;4.73;;;15.70;99.90;;;16.58;100.00;98424.19;5085108;28;20447;-81
2022/09/01 00:12:38;;;;;;;5.70;4.73;;;15.70;99.90;;;16.52;100.00;98432.91;5085481;28;20992;-81
2022/09/01 00:15:10;;;;;;;6.10;4.40;;;15.60;99.90;;;16.49;100.00;98417.50;5084550;28;20466;-81
2022/09/01 00:17:39;;;;;;;6.00;4.40;;;15.60;99.90;;;16.48;100.00;98429.09;5088318;28;20484;-81
2022/09/01 00:20:11;;;;;;;8.13;4.17;;;15.60;99.90;;;16.47;100.00;98424.84;5085624;28;21152;-81
2022/09/01 00:22:46;;;;;;;5.37;4.40;;;15.60;99.90;;;16.45;100.00;98424.22;5085541;28;20463;-81
2022/09/01 00:25:17;;;;;;;5.73;4.60;;;15.60;99.90;;;16.44;100.00;98425.28;5087995;28;20467;-81
2022/09/01 00:27:48;;;;;;;6.67;4.43;;;15.50;99.90;;;16.33;100.00;98420.69;5082698;28;20517;-81
2022/09/01 00:30:19;;;;;;;7.40;5.20;;;15.50;99.90;;;16.29;100.00;98418.66;5081049;28;20494;-83
2022/09/01 00:32:48;;;;;;;6.60;4.57;;;15.40;99.90;;;16.30;100.00;98417.66;5086304;28;20499;-82
2022/09/01 00:35:20;;;;;;;5.77;4.47;;;15.40;99.90;;;16.31;100.00;98420.09;5084278;28;20999;-82
2022/09/01 00:37:50;;;;;;;5.20;4.07;;;15.40;99.90;;;16.31;100.00;98420.09;5086966;28;20977;-82
2022/09/01 00:40:20;;;;;;;4.90;4.40;;;15.40;99.90;;;16.31;100.00;98419.28;5084017;28;21052;-82
2022/09/01 00:42:49;;;;;;;6.43;4.77;;;15.40;99.90;;;16.26;100.00;98417.28;5084541;28;20545;-82
2022/09/01 00:45:20;;;;;;;6.77;4.87;;;15.40;99.90;;;16.27;100.00;98418.91;5082191;28;20469;-82
2022/09/01 00:47:50;;;;;;;4.83;4.20;;;15.40;99.90;;;16.23;100.00;98412.44;5086079;28;20619;-82
2022/09/01 00:50:21;;;;;;;6.83;4.80;;;15.30;99.90;;;16.18;100.00;98420.16;5083073;28;21020;-82
2022/09/01 00:52:55;;;;;;;8.83;4.97;;;15.20;99.90;;;16.15;100.00;98417.16;5083710;28;20521;-82
2022/09/01 00:55:30;;;;;;;6.10;4.30;;;15.10;99.90;;;16.09;100.00;98421.47;5083180;28;20461;-82
2022/09/01 00:58:02;;;;;;;7.23;4.70;;;15.20;99.90;;;16.13;100.00;98416.56;5084290;28;20491;-81
2022/09/01 01:00:39;;;;;;;5.60;4.30;;;15.20;99.90;;;16.13;100.00;98406.81;5081630;28;20459;-81
2022/09/01 01:03:11;;;;;;;6.57;4.70;;;15.20;99.90;;;16.10;100.00;98409.88;5084568;28;20555;-81
2022/09/01 01:05:52;;;;;;;5.87;4.23;;;15.20;99.90;;;16.01;100.00;98409.31;5083249;28;20471;-82
2022/09/01 01:08:32;;;;;;;5.47;4.87;;;15.10;99.90;;;15.99;100.00;98405.28;5083262;28;20467;-82
2022/09/01 01:11:04;;;;;;;5.57;4.30;;;15.10;99.90;;;16.02;100.00;98410.94;5086430;28;20451;-82
2022/09/01 01:13:36;;;;;;;8.90;4.90;;;15.20;99.90;;;15.96;100.00;98406.53;5084967;28;20456;-81
2022/09/01 01:16:07;;;;;;;6.80;4.67;;;15.10;99.90;;;15.94;100.00;98416.47;5086989;28;20455;-81
2022/09/01 01:18:35;;;;;;;5.23;4.57;;;15.10;99.90;;;15.89;100.00;98407.59;5085375;28;20548;-82
2022/09/01 01:24:10;;;;;;;6.40;4.43;;;15.00;99.90;;;15.76;100.00;98412.94;5084690;28;21324;-81
2022/09/01 01:26:41;;;;;;;6.33;4.33;;;14.90;99.90;;;15.71;100.00;98408.28;5083951;28;20469;-82
2022/09/01 01:29:10;;;;;;;7.10;4.60;;;14.80;99.90;;;15.74;100.00;98409.69;5082941;28;20507;-82
2022/09/01 01:31:39;;;;;;;5.80;3.87;;;14.80;99.90;;;15.72;100.00;98409.09;5084834;28;20447;-81
2022/09/01 01:34:09;;;;;;;4.40;3.80;;;14.90;99.90;;;15.69;100.00;98409.53;5085492;28;20458;-82
2022/09/01 01:36:40;;;;;;;5.33;4.50;;;14.80;99.90;;;15.71;100.00;98407.47;5086842;28;20881;-82
2022/09/01 01:39:13;;;;;;;7.47;4.33;;;14.80;99.90;;;15.60;100.00;98403.66;5089775;28;20491;-82
2022/09/01 01:41:47;;;;;;;4.93;3.93;;;14.70;99.90;;;15.60;100.00;98406.31;5087296;28;20521;-81
2022/09/01 01:44:20;;;;;;;5.90;4.70;;;14.70;99.90;;;15.52;100.00;98407.34;5087301;28;20463;-82
2022/09/01 01:46:52;;;;;;;4.87;4.20;;;14.70;99.90;;;15.54;100.00;98407.16;5087658;28;21321;-82
2022/09/01 01:49:27;;;;;;;6.30;3.87;;;14.70;99.90;;;15.55;100.00;98409.56;5085925;28;20470;-82
2022/09/01 01:51:58;;;;;;;5.47;4.40;;;14.70;99.90;;;15.46;100.00;98404.72;5085613;28;20899;-82
2022/09/01 01:54:31;;;;;;;7.80;4.70;;;14.60;99.90;;;15.41;100.00;98429.03;5086578;28;20495;-81
2022/09/01 01:57:03;;;;;;;5.13;4.40;;;14.50;99.90;;;15.41;100.00;98420.34;5088391;28;20511;-82
2022/09/01 01:59:32;;;;;;;4.47;4.03;;;14.50;99.90;;;15.37;100.00;98419.16;5089491;28;20507;-81
2022/09/01 02:02:08;;;;;;;4.70;4.30;;;14.50;99.90;;;15.37;100.00;98417.31;5089310;28;21017;-81
2022/09/01 02:04:39;;;;;;;5.17;4.27;;;14.40;99.90;;;15.35;100.00;98421.97;5087940;28;20814;-82
2022/09/01 02:07:12;;;;;;;5.80;4.57;;;14.40;99.90;;;15.33;100.00;98417.94;5088274;28;20448;-81
2022/09/01 02:09:44;;;;;;;5.60;4.53;;;14.40;99.90;;;15.33;100.00;98417.94;5088321;28;20448;-82
2022/09/01 02:12:18;;;;;;;6.73;4.60;;;14.40;99.90;;;15.30;100.00;98419.16;5088312;28;21063;-82
2022/09/01 02:14:47;;;;;;;5.97;4.10;;;14.40;99.90;;;15.24;100.00;98414.72;5085813;28;20460;-82
2022/09/01 02:17:15;;;;;;;4.20;3.60;;;14.40;99.90;;;15.22;100.00;98414.13;5088666;28;20488;-82
2022/09/01 02:19:46;;;;;;;6.57;4.30;;;14.30;99.90;;;15.18;100.00;98417.38;5090073;28;20486;-82
2022/09/01 02:22:18;;;;;;;4.90;4.40;;;14.30;99.90;;;15.10;100.00;98406.03;5084890;28;20522;-81
2022/09/01 02:24:48;;;;;;;5.43;4.50;;;14.20;99.90;;;15.09;100.00;98408.91;5089725;28;20491;-82
2022/09/01 02:27:20;;;;;;;5.17;3.93;;;14.20;99.90;;;15.10;100.00;98410.50;5088429;28;20479;-81
2022/09/01 02:29:54;;;;;;;4.27;3.87;;;14.20;99.90;;;15.09;100.00;98408.91;5088467;28;20866;-81
2022/09/01 02:32:22;;;;;;;5.90;4.40;;;14.20;99.90;;;15.03;100.00;98409.69;5071898;28;20496;-81
2022/09/01 02:35:00;;;;;;;5.57;3.53;;;14.20;99.90;;;14.99;100.00;98411.16;5087483;28;20491;-81
2022/09/01 02:37:29;;;;;;;5.17;3.73;;;14.20;99.90;;;14.98;100.00;98406.88;5089113;28;20470;-82
2022/09/01 02:39:58;;;;;;;4.60;4.10;;;14.20;99.90;;;14.95;100.00;98400.22;5088189;28;20486;-81
2022/09/01 02:42:28;;;;;;;6.97;4.70;;;14.10;99.90;;;14.91;100.00;98403.44;5087577;28;20877;-81
2022/09/01 02:44:57;;;;;;;6.20;3.57;;;14.10;99.90;;;14.91;100.00;98400.81;5087229;28;20451;-82
2022/09/01 02:47:29;;;;;;;5.73;3.93;;;14.10;99.90;;;14.91;100.00;98396.38;5088574;28;20538;-81
2022/09/01 02:50:02;;;;;;;5.53;4.20;;;14.10;99.90;;;14.96;100.00;98403.66;5087040;28;20965;-81
2022/09/01 02:52:39;;;;;;;7.10;4.40;;;14.10;99.90;;;14.85;100.00;98396.38;5090816;28;20466;-81
2022/09/01 02:55:10;;;;;;;4.50;3.90;;;14.00;99.90;;;14.83;100.00;98393.13;5087779;28;20444;-81
2022/09/01 02:57:40;;;;;;;4.87;3.83;;;14.00;99.90;;;14.83;100.00;98401.03;5087689;28;20462;-81
2022/09/01 03:00:19;;;;;;;5.80;3.93;;;13.90;99.90;;;14.84;100.00;98400.84;5087990;28;20584;-81
2022/09/01 03:02:51;;;;;;;5.00;3.90;;;14.00;99.90;;;14.87;100.00;98394.34;5087170;28;20467;-81
2022/09/01 03:05:24;;;;;;;5.83;4.63;;;14.00;99.90;;;14.85;100.00;98396.38;5092671;28;20471;-88
2022/09/01 03:07:56;;;;;;;4.00;3.50;;;14.00;99.90;;;14.87;100.00;98397.78;5086422;28;21075;-81
2022/09/01 03:10:32;;;;;;;5.00;4.30;;;14.00;99.90;;;14.91;100.00;98401.63;5085527;28;20523;-81
2022/09/01 03:13:06;;;;;;;4.33;3.73;;;14.00;99.90;;;14.89;100.00;98394.97;5087326;28;20874;-81
2022/09/01 03:15:36;;;;;;;3.40;3.10;;;14.10;99.90;;;14.89;100.00;98393.13;5085819;28;20530;-81
2022/09/01 03:18:08;;;;;;;4.67;4.20;;;14.00;99.90;;;14.86;100.00;98398.78;5087357;28;21244;-86
2022/09/01 03:20:42;;;;;;;6.30;3.97;;;14.00;99.90;;;14.86;100.00;98387.44;5089533;28;20522;-83
2022/09/01 03:23:14;;;;;;;6.60;4.60;;;13.90;99.90;;;14.83;100.00;98398.41;5086942;28;20556;-83
2022/09/01 03:25:48;;;;;;;8.13;4.00;;;13.80;99.90;;;14.79;100.00;98398.00;5085206;28;20524;-82
2022/09/01 03:28:18;;;;;;;7.40;4.10;;;13.80;99.90;;;14.79;100.00;98391.91;5085298;28;20913;-82
2022/09/01 03:30:52;;;;;;;5.17;4.67;;;13.80;99.90;;;14.82;100.00;98394.16;5086104;28;20475;-82
2022/09/01 03:33:23;;;;;;;5.63;4.20;;;13.80;99.90;;;14.77;100.00;98393.97;5085182;28;20499;-82
2022/09/01 03:35:55;;;;;;;4.63;4.03;;;13.90;99.90;;;14.77;100.00;98404.50;5087042;28;20463;-83
2022/09/01 03:38:25;;;;;;;11.83;3.63;;;13.90;99.90;;;14.76;100.00;98397.59;5084665;28;20950;-83
2022/09/01 03:41:00;;;;;;;4.73;3.63;;;13.90;99.90;;;14.78;100.00;98390.31;5090401;28;20494;-90
2022/09/01 03:43:34;;;;;;;3.90;3.60;;;13.90;99.90;;;14.75;100.00;98396.00;5087095;28;20551;-81
2022/09/01 03:46:03;;;;;;;6.10;3.57;;;13.90;99.90;;;14.69;100.00;98386.25;5085800;28;20467;-83
2022/09/01 03:48:36;;;;;;;4.47;3.90;;;13.80;99.90;;;14.62;100.00;98386.28;5087609;28;20483;-83
2022/09/01 03:51:06;;;;;;;5.07;4.00;;;13.80;99.90;;;14.61;100.00;98384.69;5083341;28;20498;-82
2022/09/01 03:53:39;;;;;;;4.20;3.70;;;13.80;99.90;;;14.65;100.00;98385.06;5084681;28;20459;-81
2022/09/01 03:56:08;;;;;;;10.00;4.17;;;13.80;99.90;;;14.67;100.00;98388.31;5087035;28;20467;-81
2022/09/01 03:58:42;;;;;;;5.20;3.87;;;13.70;99.90;;;14.66;100.00;98382.22;5085522;28;20556;-81
2022/09/01 04:01:12;;;;;;;5.17;3.53;;;13.80;99.90;;;14.59;100.00;98382.22;5084919;28;20984;-81
2022/09/01 04:03:47;;;;;;;6.10;3.97;;;13.70;99.90;;;14.60;100.00;98383.06;5086435;28;20458;-81
2022/09/01 04:06:18;;;;;;;5.33;3.83;;;13.70;99.90;;;14.58;100.00;98385.88;5085721;28;20819;-85
2022/09/01 04:08:47;;;;;;;5.40;3.70;;;13.70;99.90;;;14.61;100.00;98382.03;5086689;28;20459;-85
2022/09/01 04:11:22;;;;;;;6.20;3.70;;;13.70;99.90;;;14.56;100.00;98385.28;5084825;28;20825;-82
2022/09/01 04:13:53;;;;;;;3.83;3.43;;;13.70;99.90;;;14.47;100.00;98389.09;5085077;28;20463;-82
2022/09/01 04:19:23;;;;;;;3.70;3.27;;;13.60;99.90;;;14.38;100.00;98390.34;5085284;28;20447;-90
2022/09/01 04:21:58;;;;;;;6.30;3.80;;;13.50;99.90;;;14.37;100.00;98391.34;5089886;28;20443;-82
2022/09/01 04:24:31;;;;;;;4.43;3.90;;;13.40;99.90;;;14.36;100.00;98388.94;5086924;28;20481;-81
2022/09/01 04:27:02;;;;;;;5.00;4.00;;;13.50;99.90;;;14.32;100.00;98390.31;5086459;28;20498;-82
2022/09/01 04:29:33;;;;;;;7.43;4.53;;;13.60;99.90;;;14.28;100.00;98389.91;5087460;28;20468;-82
2022/09/01 04:32:05;;;;;;;7.78;4.00;;;13.50;99.90;;;14.24;100.00;98390.50;5084244;28;20441;-82
2022/09/01 04:34:38;;;;;;;5.00;3.40;;;13.40;99.90;;;14.22;100.00;98388.09;5089143;28;20729;-83
2022/09/01 04:37:11;;;;;;;3.90;3.43;;;13.30;99.90;;;14.19;100.00;98383.22;5088300;28;20442;-83
2022/09/01 04:39:47;;;;;;;7.20;3.90;;;13.40;99.90;;;14.13;100.00;98376.94;5086862;28;20485;-82
2022/09/01 04:42:24;;;;;;;4.87;4.23;;;13.40;99.90;;;14.10;100.00;98387.06;5084866;28;20505;-81
2022/09/01 04:44:56;;;;;;;5.23;3.80;;;13.30;99.90;;;14.10;100.00;98387.88;5085528;28;20483;-83
2022/09/01 04:47:29;;;;;;;3.60;3.27;;;13.20;99.90;;;14.18;100.00;98384.22;5088194;28;20442;-82
2022/09/01 04:50:12;;;;;;;4.27;3.87;;;13.30;99.90;;;14.11;100.00;98383.41;5087381;28;20459;-82
2022/09/01 04:52:43;;;;;;;5.57;4.00;;;13.30;99.90;;;14.10;100.00;98381.78;5088390;28;20460;-83
2022/09/01 04:55:17;;;;;;;3.80;3.23;;;13.20;99.90;;;14.11;100.00;98378.16;5087688;28;20489;-82
2022/09/01 04:57:48;;;;;;;5.50;3.70;;;13.20;99.90;;;14.10;100.00;98379.16;5088222;28;20468;-82
2022/09/01 05:00:24;;;;;;;5.33;3.60;;;13.20;99.90;;;14.05;100.00;98376.34;5087269;28;20487;-82
2022/09/01 05:03:02;;;;;;;3.67;3.10;;;13.20;99.90;;;14.04;100.00;98379.97;5088172;28;20534;-82
2022/09/01 05:05:41;;;;;;;4.30;3.20;;;13.20;99.90;;;14.01;100.00;98377.75;5087114;28;20459;-82
2022/09/01 05:08:13;;;;;;;3.50;3.20;;;13.20;99.90;;;13.99;100.00;98380.56;5090645;28;20455;-82
2022/09/01 05:10:55;;;;;;;4.20;3.30;;;13.20;99.90;;;13.97;100.00;98379.97;5088055;28;20810;-82
2022/09/01 05:13:28;;;;;;;4.40;3.07;;;13.10;99.90;;;13.99;100.00;98379.75;5087605;28;20431;-82
2022/09/01 05:16:06;;;;;;;4.67;3.83;;;13.10;99.90;;;13.98;100.00;98378.97;5087154;28;20497;-81
2022/09/01 05:18:35;;;;;;;4.57;3.50;;;13.10;99.90;;;13.96;100.00;98382.78;5086608;28;20467;-82
2022/09/01 05:21:08;;;;;;;3.33;3.03;;;13.10;99.90;;;13.94;100.00;98376.94;5086768;28;21024;-82
2022/09/01 05:23:39;;;;;;;5.03;3.40;;;13.10;99.90;;;13.90;100.00;98379.16;5087367;28;20483;-82
2022/09/01 05:26:15;;;;;;;7.40;3.50;;;13.10;99.90;;;13.93;100.00;98380.56;5087441;28;20451;-82
2022/09/01 05:28:44;;;;;;;3.90;3.50;;;13.10;99.90;;;13.92;100.00;98373.66;5087025;28;20455;-82
2022/09/01 05:31:18;;;;;;;3.50;3.20;;;13.10;99.90;;;13.97;100.00;98381.78;5085113;28;20524;-82
2022/09/01 05:33:48;;;;;;;3.83;3.17;;;13.10;99.90;;;13.98;100.00;98386.84;5086032;28;20470;-82
2022/09/01 05:36:21;;;;;;;5.70;3.70;;;13.00;99.90;;;14.02;100.00;98388.03;5085308;28;20454;-82
2022/09/01 05:38:51;;;;;;;3.83;3.10;;;13.10;99.90;;;14.03;100.00;98391.50;5086570;28;20463;-82
2022/09/01 05:41:22;;;;;;;6.13;3.40;;;13.10;99.90;;;14.08;100.00;98389.09;5085616;28;20586;-82
2022/09/01 05:43:53;;;;;;;4.30;3.90;;;13.10;99.90;;;14.07;100.00;98388.25;5086811;28;20522;-82
2022/09/01 05:46:30;;;;;;;3.83;3.30;;;13.10;99.90;;;14.04;100.00;98390.50;5087025;28;20431;-82
2022/09/01 05:48:58;;;;;;;6.83;3.93;;;13.20;99.90;;;14.08;100.00;98383.81;5086993;28;20529;-82
2022/09/01 05:51:33;;;;;;;6.70;3.87;;;13.20;99.90;;;14.14;100.00;98388.28;5087503;28;20452;-82
2022/09/01 05:54:13;;;;;;;4.87;3.80;;;13.20;99.90;;;14.22;100.00;98401.25;5086456;28;20456;-83
2022/09/01 05:56:44;;;;;;;4.27;3.87;;;13.30;99.90;;;14.27;100.00;98396.16;5086977;28;20454;-82
2022/09/01 05:59:14;;;;;;;4.67;3.60;;;13.30;99.90;;;14.31;100.00;98400.03;5086890;28;20472;-82
2022/09/01 06:01:54;;;;;;;3.60;3.30;;;13.40;99.90;;;14.38;100.00;98394.78;5085876;28;20483;-83
2022/09/01 06:04:26;;;;;;;4.17;3.70;;;13.40;99.90;;;14.44;100.00;98389.53;5086412;28;20441;-83
2022/09/01 06:06:55;;;;;;;4.43;3.73;;;13.50;99.90;;;14.49;100.00;98395.00;5087168;28;20476;-82
2022/09/01 06:09:39;;;;;;;6.33;3.63;;;13.60;99.90;;;14.57;100.00;98386.91;5086129;28;20949;-82
2022/09/01 06:12:16;;;;;;;4.80;3.00;;;13.60;99.90;;;14.64;100.00;98380.81;5069558;28;20455;-82
2022/09/01 06:14:48;;;;;;;3.83;3.17;;;13.60;99.90;;;14.66;100.00;98386.69;5087484;28;20616;-82
2022/09/01 06:17:23;;;;;;;3.70;3.30;;;13.70;99.90;;;14.68;100.00;98382.03;5085775;28;20455;-82
2022/09/01 06:19:55;;;;;;;6.30;3.00;;;13.80;99.90;;;14.69;100.00;98386.25;5086539;28;20529;-82
2022/09/01 06:22:26;;;;;;;5.60;3.17;;;13.80;99.90;;;14.76;100.00;98390.50;5086749;28;20495;-82
2022/09/01 06:24:58;;;;;;;4.37;3.27;;;13.80;99.90;;;14.75;100.00;98386.25;5087943;28;20877;-83
2022/09/01 06:27:30;;;;;;;3.80;2.90;;;13.90;99.90;;;14.77;100.00;98393.97;5089524;28;20605;-83
2022/09/01 06:30:00;;;;;;;6.50;3.10;;;13.90;99.90;;;14.82;100.00;98386.25;5089521;28;20538;-83
2022/09/01 06:32:32;;;;;;;3.33;2.70;;;14.00;99.90;;;14.86;100.00;98390.09;5091098;28;20941;-82
2022/09/01 06:35:02;;;;;;;4.23;3.27;;;14.00;99.90;;;14.90;100.00;98391.28;5073646;28;20447;-82
2022/09/01 06:37:33;;;;;;;3.60;3.00;;;14.00;99.90;;;14.95;100.00;98394.94;5073158;28;20491;-82
2022/09/01 06:40:05;;;;;;;4.83;2.70;;;14.00;99.90;;;15.03;100.00;98393.88;5071980;28;20449;-82
2022/09/01 06:42:34;;;;;;;3.30;3.00;;;14.10;99.90;;;15.05;100.00;98394.50;5089006;28;20595;-81
2022/09/01 06:45:03;;;;;;;3.87;3.17;;;14.20;99.90;;;15.12;100.00;98392.66;5072264;28;20455;-83
2022/09/01 06:47:34;;;;;;;12.40;2.70;;;14.20;99.90;;;15.20;100.00;98391.63;5090664;28;21184;-82
2022/09/01 06:50:07;;;;;;;5.30;3.10;;;14.30;99.90;;;15.26;100.00;98393.44;5091322;28;20447;-82
2022/09/01 06:52:37;;;;;;;3.20;2.90;;;14.40;99.90;;;15.32;100.00;98390.78;5089844;28;20464;-82
2022/09/01 06:55:33;;;;;;;4.50;3.10;;;14.50;99.90;;;15.40;100.00;98395.81;5090841;28;20525;-82
2022/09/01 06:58:05;;;;;;;6.03;2.90;;;14.60;99.90;;;15.46;100.00;98394.97;5088238;28;20540;-82
2022/09/01 07:00:40;;;;;;;9.00;2.90;;;14.60;99.90;;;15.52;100.00;98394.16;5089998;28;20458;-82
2022/09/01 07:03:14;;;;;;;3.50;2.83;;;14.80;99.90;;;15.62;100.00;98392.91;5091074;28;20442;-82
2022/09/01 07:05:48;;;;;;;4.43;2.80;;;14.90;99.90;;;15.70;100.00;98395.28;5090251;28;20531;-83
2022/09/01 07:08:38;;;;;;;4.90;3.07;;;14.90;99.90;;;15.80;100.00;98395.66;5089634;28;20497;-82
2022/09/01 07:11:31;;;;;;;7.60;3.00;;;15.00;99.90;;;15.94;100.00;98399.81;5089459;28;21027;-82
2022/09/01 07:14:21;;;;;;;4.07;2.50;;;15.20;99.90;;;16.08;100.00;98398.72;5088959;28;20483;-82
2022/09/01 07:16:50;;;;;;;5.00;2.60;;;15.30;99.90;;;16.21;100.00;98403.91;5088585;28;20495;-82
2022/09/01 07:19:40;;;;;;;3.80;2.30;;;15.50;99.90;;;16.33;100.00;98410.13;5086514;28;20850;-83
2022/09/01 07:22:16;;;;;;;3.30;2.10;;;15.70;99.90;;;16.45;100.00;98411.03;5089173;28;20512;-83
2022/09/01 07:25:09;;;;;;;3.10;2.80;;;15.80;99.90;;;16.55;100.00;98411.41;5088455;28;20472;-82
2022/09/01 07:27:47;;;;;;;13.27;2.43;;;15.90;99.90;;;16.68;100.00;98412.31;5072053;28;20470;-82
2022/09/01 07:30:20;;;;;;;4.93;2.83;;;16.00;99.90;;;16.78;100.00;98415.25;5089518;28;20435;-82
2022/09/01 07:32:52;;;;;;;2.73;2.17;;;16.10;99.90;;;16.88;100.00;98412.94;5089010;28;20570;-82
2022/09/01 07:35:24;;;;;;;3.20;2.40;;;16.20;99.90;;;16.97;100.00;98419.56;5088325;28;20601;-83
2022/09/01 07:37:55;;;;;;;2.97;2.47;;;16.30;99.90;;;17.05;100.00;98420.06;5088356;28;20461;-83
2022/09/01 07:40:43;;;;;;;12.03;2.43;;;16.40;99.90;;;17.15;100.00;98421.41;5088642;28;20450;-82
2022/09/01 07:43:32;;;;;;;6.13;2.23;;;16.50;99.90;;;17.21;100.00;98420.53;5085996;28;20497;-82
2022/09/01 07:46:05;;;;;;;4.00;2.00;;;16.50;99.90;;;17.29;100.00;98422.88;5089386;28;20455;-83
2022/09/01 07:48:56;;;;;;;4.90;2.63;;;16.70;99.90;;;17.36;100.00;98419.13;5088743;28;20538;-83
2022/09/01 07:51:48;;;;;;;4.07;2.37;;;16.70;99.90;;;17.45;100.00;98424.94;5089743;28;20525;-82
2022/09/01 07:54:20;;;;;;;3.57;2.70;;;16.90;99.90;;;17.48;100.00;98437.72;5088558;28;20517;-83
2022/09/01 07:56:49;;;;;;;4.43;2.37;;;17.00;99.90;;;17.54;100.00;98427.06;5088737;28;20440;-83
2022/09/01 07:59:20;;;;;;;2.50;2.30;;;17.00;99.90;;;17.58;100.00;98430.09;5087509;28;20451;-83
2022/09/01 08:01:49;;;;;;;4.40;2.30;;;17.00;99.90;;;17.67;100.00;98426.09;5087766;28;20479;-82
2022/09/01 08:04:21;;;;;;;2.97;2.47;;;17.10;99.90;;;17.72;100.00;98428.91;5088368;28;20442;-83
2022/09/01 08:06:54;;;;;;;4.50;2.30;;;17.20;99.90;;;17.78;100.00;98427.19;5086739;28;20466;-82
2022/09/01 08:09:23;;;;;;;5.00;2.43;;;17.30;99.90;;;17.82;100.00;98425.72;5086336;28;20452;-83
2022/09/01 08:12:06;;;;;;;2.20;2.00;;;17.30;99.90;;;17.90;100.00;98425.41;5088020;28;20463;-83
2022/09/01 08:14:35;;;;;;;4.07;2.40;;;17.40;99.90;;;17.97;100.00;98424.28;5088239;28;20977;-83
2022/09/01 08:17:05;;;;;;;3.43;2.07;;;17.50;99.90;;;18.06;100.00;98430.06;5069398;28;20508;-82
2022/09/01 08:19:54;;;;;;;2.43;2.23;;;17.50;99.90;;;18.09;100.00;98424.31;5085904;28;20510;-84
2022/09/01 08:22:25;;;;;;;6.50;2.70;;;17.60;99.90;;;18.15;100.00;98427.91;5087404;28;20492;-82
2022/09/01 08:24:55;;;;;;;4.33;2.60;;;17.60;99.90;;;18.21;100.00;98417.22;5086993;28;21000;-83
2022/09/01 08:27:24;;;;;;;4.43;2.37;;;17.70;99.90;;;18.30;100.00;98423.00;5087150;28;20451;-83
2022/09/01 08:29:53;;;;;;;3.40;2.47;;;17.80;99.90;;;18.34;100.00;98414.38;5088336;28;20884;-83
2022/09/01 08:32:21;;;;;;;7.00;2.60;;;17.80;99.90;;;18.38;100.00;98412.09;5087078;28;20443;-82
2022/09/01 08:34:50;;;;;;;3.97;2.67;;;17.90;99.90;;;18.43;100.00;98420.94;5088605;28;20451;-82
2022/09/01 08:37:20;;;;;;;4.40;2.47;;;17.90;99.90;;;18.49;100.00;98414.75;5086982;28;20804;-82
2022/09/01 08:39:51;;;;;;;7.33;2.50;;;17.90;99.90;;;18.54;100.00;98422.84;5086905;28;20460;-82
2022/09/01 08:42:39;;;;;;;2.90;2.60;;;17.90;99.90;;;18.57;100.00;98425.03;5085471;28;20495;-83
2022/09/01 08:45:20;;;;;;;5.10;2.90;;;17.90;99.70;;;18.67;100.00;98426.31;5069308;28;20460;-82
2022/09/01 08:47:53;;;;;;;4.83;3.10;;;18.00;99.90;;;18.72;100.00;98429.06;5085673;28;21027;-82
2022/09/01 08:50:45;;;;;;;5.20;3.03;;;18.10;99.80;;;18.79;100.00;98427.13;5085702;28;21127;-83
2022/09/01 08:53:29;;;;;;;7.60;3.13;;;18.20;99.90;;;18.82;100.00;98430.13;5085175;28;20521;-82
2022/09/01 08:56:02;;;;;;;3.17;2.80;;;18.30;99.90;;;18.89;100.00;98427.34;5086862;28;20455;-83
2022/09/01 08:58:32;;;;;;;3.63;2.57;;;18.30;99.90;;;18.91;100.00;98422.66;5086074;28;20947;-82
2022/09/01 09:01:10;;;;;;;10.17;3.00;;;18.30;99.70;;;18.96;100.00;98426.22;5087775;28;20472;-83
2022/09/01 09:03:57;;;;;;;4.17;2.67;;;18.30;99.80;;;19.03;100.00;98431.38;5086473;28;20577;-83
2022/09/01 09:06:38;;;;;;;3.17;2.63;;;18.40;99.30;;;19.03;100.00;98423.44;5088453;28;20463;-82
2022/09/01 09:09:09;;;;;;;4.07;3.13;;;18.50;99.10;;;19.04;100.00;98428.53;5085215;28;20435;-82
2022/09/01 09:12:14;;;;;;;10.03;3.60;;;18.50;99.20;;;19.08;100.00;98429.69;5084642;28;20473;-82
2022/09/01 09:15:05;;;;;;;3.63;2.33;;;18.40;99.20;;;19.16;100.00;98430.34;5085636;28;20548;-82
2022/09/01 09:17:41;;;;;;;6.93;2.80;;;18.50;99.50;;;19.21;100.00;98423.31;5087080;28;20504;-82
2022/09/01 09:20:11;;;;;;;7.30;2.67;;;18.50;99.40;;;19.21;100.00;98423.31;5086049;28;20443;-82
2022/09/01 09:22:43;;;;;;;4.43;3.00;;;18.50;99.20;;;19.30;100.00;98423.78;5086257;28;20494;-82
2022/09/01 09:25:14;;;;;;;3.03;2.60;;;18.60;99.30;;;19.32;100.00;98419.84;5085891;28;20482;-82
2022/09/01 09:27:51;;;;;;;6.23;2.87;;;18.80;99.10;;;19.34;100.00;98423.06;5086569;28;21014;-82
2022/09/01 09:30:31;;;;;;;5.63;2.83;;;18.80;99.10;;;19.40;100.00;98416.81;5085342;28;20491;-83
2022/09/01 09:33:03;;;;;;;6.90;2.67;;;18.90;99.20;;;19.43;100.00;98418.22;5085811;28;20496;-83
2022/09/01 09:35:56;;;;;;;4.03;2.60;;;19.00;99.00;;;19.45;100.00;98419.59;5085814;28;20448;-82
2022/09/01 09:38:29;;;;;;;4.90;2.93;;;19.00;98.90;;;19.49;100.00;98410.13;5087257;28;20451;-83
2022/09/01 09:41:02;;;;;;;5.90;3.00;;;19.10;98.80;;;19.53;100.00;98416.59;5085342;28;20483;-82
2022/09/01 09:43:57;;;;;;;10.80;3.30;;;19.10;98.80;;;19.59;100.00;98410.34;5085854;28;20499;-82
2022/09/01 09:46:35;;;;;;;6.40;3.47;;;19.10;98.70;;;19.66;100.00;98406.72;5086633;28;20504;-82
2022/09/01 09:49:25;;;;;;;4.40;3.37;;;19.20;98.80;;;19.72;100.00;98405.78;5085374;28;20528;-82
2022/09/01 09:52:18;;;;;;;3.23;2.80;;;19.20;98.70;;;19.82;100.00;98403.34;5085329;28;20468;-82
2022/09/01 09:55:21;;;;;;;3.30;3.00;;;19.30;98.80;;;19.90;100.00;98405.59;5086995;28;20467;-82
2022/09/01 09:57:56;;;;;;;3.87;3.20;;;19.30;98.60;;;19.99;100.00;98396.22;5086889;28;20484;-82
2022/09/01 10:00:29;;;;;;;4.23;3.30;;;19.50;98.60;;;20.06;100.00;98394.22;5072788;28;20463;-82
2022/09/01 10:03:03;;;;;;;8.33;3.60;;;19.50;98.50;;;20.13;100.00;98394.06;5090409;28;20485;-82
2022/09/01 10:05:44;;;;;;;6.33;2.97;;;19.50;98.40;;;20.20;99.78;98390.19;5089847;28;20446;-83
2022/09/01 10:08:36;;;;;;;4.70;3.10;;;19.50;98.40;;;20.27;98.52;98395.38;5090712;28;20482;-82
2022/09/01 10:11:06;;;;;;;3.97;3.40;;;19.70;98.20;;;20.30;97.52;98385.13;5091391;28;20447;-83
2022/09/01 10:13:36;;;;;;;6.27;3.07;;;19.80;98.00;;;20.33;96.75;98397.09;5088857;28;20429;-82
2022/09/01 10:16:22;;;;;;;4.37;3.30;;;19.90;97.70;;;20.34;96.03;98388.88;5090377;28;20447;-82
2022/09/01 10:18:59;;;;;;;4.53;3.03;;;19.90;97.60;;;20.39;95.05;98382.84;5089843;28;20797;-83
2022/09/01 10:21:36;;;;;;;3.93;2.90;;;19.90;97.40;;;20.39;94.91;98377.53;5089530;28;20451;-82
2022/09/01 10:24:18;;;;;;;4.67;3.27;;;19.90;97.30;;;20.43;94.68;98374.16;5090211;28;20494;-82
2022/09/01 10:26:57;;;;;;;5.13;3.10;;;19.90;97.30;;;20.46;94.69;98373.66;5090759;28;20451;-83
2022/09/01 10:29:32;;;;;;;5.03;3.43;;;19.90;97.50;;;20.50;94.46;98374.81;5090686;28;20456;-82
2022/09/01 10:32:11;;;;;;;3.33;2.70;;;19.90;97.40;;;20.53;93.16;98374.31;5089810;28;20470;-82
2022/09/01 10:35:03;;;;;;;5.53;3.40;;;20.10;97.20;;;20.59;94.04;98370.69;5089094;28;20521;-82
2022/09/01 10:37:34;;;;;;;7.03;2.93;;;20.00;97.20;;;20.68;94.26;98359.66;5090357;28;20951;-83
2022/09/01 10:40:21;;;;;;;4.30;3.00;;;20.10;97.40;;;20.75;91.90;98362.94;5072438;28;21310;-82
2022/09/01 10:43:20;;;;;;;5.97;2.80;;;20.30;97.00;;;20.79;92.44;98366.72;5089252;28;20558;-83
2022/09/01 10:45:50;;;;;;;4.60;3.27;;;20.20;97.10;;;20.86;90.91;98367.34;5089905;28;20443;-82
2022/09/01 10:48:32;;;;;;;4.50;3.07;;;20.30;96.80;;;20.91;91.22;98370.06;5087968;28;20504;-82